createdAt,value
2023-03-21T00:13:18.621Z,3036.03638
2023-03-21T00:28:20.857Z,1912.95471
2023-03-21T00:43:23.110Z,1745.15161
2023-03-21T00:58:25.385Z,1386.77222
2023-03-21T01:13:27.774Z,969.66187
2023-03-21T01:28:30.008Z,658.02765
2023-03-21T01:43:32.297Z,335.60608
2023-03-21T01:58:34.546Z,119.85931
2023-03-21T02:13:36.778Z,23.97186
2023-03-21T02:28:38.997Z,2.39719
2023-03-21T02:43:41.277Z,0
2023-03-21T02:58:43.711Z,0
2023-03-21T03:13:46.110Z,0
2023-03-21T03:28:48.409Z,0
2023-03-21T03:43:50.701Z,0
2023-03-21T03:58:52.996Z,0
2023-03-21T04:13:55.262Z,0
2023-03-21T04:28:57.484Z,0
2023-03-21T04:43:59.738Z,0
2023-03-21T04:59:02.249Z,0
2023-03-21T05:14:04.454Z,0
2023-03-21T05:29:06.689Z,0
2023-03-21T05:44:08.945Z,0
2023-03-21T05:59:11.241Z,0
2023-03-21T06:14:13.660Z,0
2023-03-21T06:29:15.911Z,0
2023-03-21T06:44:18.157Z,0
2023-03-21T06:59:20.387Z,0
2023-03-21T07:14:22.854Z,0
2023-03-21T07:29:25.151Z,0
2023-03-21T07:44:27.503Z,0
2023-03-21T07:59:29.726Z,0
2023-03-21T08:14:32.126Z,0
2023-03-21T08:29:34.405Z,0
2023-03-21T08:44:36.717Z,0
2023-03-21T08:59:38.945Z,0
2023-03-21T09:14:41.176Z,0
2023-03-21T09:29:43.387Z,0
2023-03-21T09:44:45.643Z,0
2023-03-21T09:59:47.910Z,0
2023-03-21T10:14:50.290Z,0
2023-03-21T10:29:52.608Z,0
2023-03-21T10:44:55.020Z,0
2023-03-21T10:59:57.302Z,0
2023-03-21T11:14:59.539Z,0
2023-03-21T11:30:01.826Z,0
2023-03-21T11:45:04.042Z,0
2023-03-21T12:00:06.450Z,0
2023-03-21T12:15:08.660Z,0
2023-03-21T12:30:10.902Z,0
2023-03-21T12:45:15.774Z,0
2023-03-21T13:00:18.264Z,0
2023-03-21T13:15:23.954Z,0
2023-03-21T13:30:26.915Z,5.99297
2023-03-21T13:45:29.142Z,62.32684
2023-03-21T14:00:31.506Z,246.91019
2023-03-21T14:15:35.374Z,533.37396
2023-03-21T14:30:38.200Z,862.98706
2023-03-21T14:45:40.868Z,1256.12561
2023-03-21T15:00:43.358Z,17859.03711
2023-03-21T15:15:45.691Z,12181.30176
2023-03-21T15:30:47.923Z,4836.32324
2023-03-21T15:45:50.225Z,6063.68262
2023-03-21T16:00:55.143Z,13427.83887
2023-03-21T16:15:57.784Z,17892.59766
2023-03-21T16:31:00.039Z,10824.49512
2023-03-21T16:46:02.400Z,10403.78809
2023-03-21T17:01:04.665Z,6997.38672
2023-03-21T17:16:06.852Z,6374.11816
2023-03-21T17:31:09.255Z,6015.73877
2023-03-21T17:46:11.511Z,5961.80225
2023-03-21T18:01:13.752Z,6050.49805
2023-03-21T18:16:16.123Z,5659.75684
2023-03-21T18:31:19.787Z,5288.19287
2023-03-21T18:46:22.585Z,5281.00146
2023-03-21T19:01:24.981Z,5344.52686
2023-03-21T19:16:30.766Z,5230.66064
2023-03-21T19:31:37.064Z,5574.65674
2023-03-21T19:46:39.370Z,5948.61768
2023-03-21T20:01:41.785Z,5571.06104
2023-03-21T20:16:44.801Z,5499.14551
2023-03-21T20:31:47.105Z,5245.04346
2023-03-21T20:46:49.440Z,5372.09424
2023-03-21T21:01:52.046Z,5536.30176
2023-03-21T21:16:54.715Z,6143.98828
2023-03-21T21:31:57.103Z,6030.12207
2023-03-21T21:46:59.649Z,7292.24072
2023-03-21T22:02:02.063Z,7527.16504
2023-03-21T22:17:04.314Z,7107.65723
2023-03-21T22:32:06.832Z,7367.75195
2023-03-21T22:47:09.065Z,7563.12256
2023-03-21T23:02:11.387Z,7824.41602
2023-03-21T23:17:13.663Z,7721.33691
2023-03-21T23:32:15.896Z,7451.65332
2023-03-21T23:47:18.124Z,6929.06689
